Time;durP1;ratioP1;P1;durP2;ratioP2;P2;SDS_P1;SDS_P2;PMS_P1;PMS_P2;Temp;Humidity;BMP_temperature;BMP_pressure;BME280_temperature;BME280_humidity;BME280_pressure;Samples;Min_cycle;Max_cycle;Signal;HPM_P1;HPM_P2
2022/07/22 00:00:46;;;;;;;7.27;2.83;;;;;;;-150.27;100.00;61272.81;5250350;28;20025;-78
2022/07/22 00:03:17;;;;;;;7.43;3.27;;;;;;;-150.27;100.00;61272.81;5250981;28;20033;-78
2022/07/22 00:05:48;;;;;;;8.47;3.80;;;;;;;-150.27;100.00;61272.81;5249369;28;20047;-77
2022/07/22 00:08:20;;;;;;;11.53;4.80;;;;;;;-150.27;100.00;61272.81;5253103;28;20040;-78
2022/07/22 00:10:51;;;;;;;7.10;3.43;;;;;;;-150.27;100.00;61272.81;5255880;28;20044;-77
2022/07/22 00:13:22;;;;;;;9.73;4.27;;;;;;;-150.27;100.00;61272.81;5232990;28;20117;-77
2022/07/22 00:15:53;;;;;;;11.87;4.83;;;;;;;-150.27;100.00;61272.81;5253593;28;20123;-77
2022/07/22 00:18:25;;;;;;;12.87;3.87;;;;;;;-150.27;100.00;61272.81;5250455;28;20043;-78
2022/07/22 00:20:56;;;;;;;8.83;4.00;;;;;;;-150.27;100.00;61272.81;5250318;28;20036;-77
2022/07/22 00:23:28;;;;;;;7.73;4.27;;;;;;;-150.27;100.00;61272.81;5250618;28;20067;-78
2022/07/22 00:26:00;;;;;;;11.10;4.57;;;;;;;-150.27;100.00;61272.81;5249149;28;20120;-78
2022/07/22 00:28:31;;;;;;;9.70;4.43;;;;;;;-150.27;100.00;61272.81;5251114;28;20373;-78
2022/07/22 00:31:02;;;;;;;8.57;4.03;;;;;;;-150.27;100.00;61272.81;5251045;28;20033;-78
2022/07/22 00:33:34;;;;;;;12.37;5.00;;;;;;;-150.27;100.00;61272.81;5249530;28;20086;-78
2022/07/22 00:36:06;;;;;;;11.20;4.63;;;;;;;-150.27;100.00;61272.81;5249330;28;20171;-78
2022/07/22 00:38:38;;;;;;;14.47;6.03;;;;;;;-150.27;100.00;61272.81;5250988;28;20024;-78
2022/07/22 00:41:09;;;;;;;9.03;4.30;;;;;;;-150.27;100.00;61272.81;5238877;28;20032;-78
2022/07/22 00:43:51;;;;;;;15.50;5.90;;;;;;;-150.27;100.00;61272.81;5252996;28;20036;-78
2022/07/22 00:46:23;;;;;;;9.33;4.50;;;;;;;-150.27;100.00;61272.81;5250788;28;20434;-77
2022/07/22 00:48:55;;;;;;;14.20;4.70;;;;;;;-150.27;100.00;61272.81;5233028;28;20017;-77
2022/07/22 00:51:27;;;;;;;14.83;4.83;;;;;;;-150.27;100.00;61272.81;5251194;28;20025;-77
2022/07/22 00:54:00;;;;;;;12.67;4.53;;;;;;;-150.27;100.00;61272.81;5251789;28;20731;-76
2022/07/22 00:56:31;;;;;;;10.77;4.97;;;;;;;-150.27;100.00;61272.81;5250064;28;20369;-79
2022/07/22 00:59:05;;;;;;;22.30;5.80;;;;;;;-150.27;100.00;61272.81;5250826;28;20036;-78
2022/07/22 01:01:37;;;;;;;12.68;4.68;;;;;;;-150.27;100.00;61272.81;5254538;28;20033;-78
2022/07/22 01:04:08;;;;;;;13.23;4.23;;;;;;;-150.27;100.00;61272.81;5250306;28;20049;-78
2022/07/22 01:06:44;;;;;;;16.73;5.30;;;;;;;-150.27;100.00;61272.81;5263850;22;21544;-78
2022/07/22 01:09:15;;;;;;;20.87;4.67;;;;;;;-150.27;100.00;61272.81;5277851;28;20637;-79
2022/07/22 01:11:47;;;;;;;9.87;4.80;;;;;;;-150.27;100.00;61272.81;5270927;28;20021;-78
2022/07/22 01:14:18;;;;;;;11.17;4.63;;;;;;;-150.27;100.00;61272.81;5270013;28;20043;-78
2022/07/22 01:16:50;;;;;;;9.70;4.43;;;;;;;-150.27;100.00;61272.81;5269510;28;20033;-79
2022/07/22 01:19:21;;;;;;;11.47;4.90;;;;;;;-150.27;100.00;61272.81;5270162;28;20031;-78
2022/07/22 01:21:52;;;;;;;9.97;5.27;;;;;;;-150.27;100.00;61272.81;5269321;28;20484;-78
2022/07/22 01:24:24;;;;;;;17.33;4.90;;;;;;;-150.27;100.00;61272.81;5269934;28;20142;-78
2022/07/22 01:26:55;;;;;;;11.20;4.70;;;;;;;-150.27;100.00;61272.81;5268709;28;20020;-78
2022/07/22 01:29:26;;;;;;;12.87;6.37;;;;;;;-150.27;100.00;61272.81;5270069;28;20027;-78
2022/07/22 01:31:59;;;;;;;13.10;5.00;;;;;;;-150.27;100.00;61272.81;5268921;28;20060;-78
2022/07/22 01:34:30;;;;;;;18.43;5.93;;;;;;;-150.27;100.00;61272.81;5269914;28;20063;-78
2022/07/22 01:37:01;;;;;;;14.97;5.10;;;;;;;-150.27;100.00;61272.81;5267760;28;20060;-78
2022/07/22 01:39:33;;;;;;;12.90;5.53;;;;;;;-150.27;100.00;61272.81;5269588;28;20028;-78
2022/07/22 01:42:04;;;;;;;12.73;5.43;;;;;;;-150.27;100.00;61272.81;5270192;28;20104;-77
2022/07/22 01:44:36;;;;;;;23.33;6.60;;;;;;;-150.27;100.00;61272.81;5268826;28;20090;-78
2022/07/22 01:47:08;;;;;;;17.50;5.20;;;;;;;-150.27;100.00;61272.81;5269408;28;20107;-77
2022/07/22 01:49:39;;;;;;;11.80;4.90;;;;;;;-150.27;100.00;61272.81;5267891;28;20490;-78
2022/07/22 01:52:11;;;;;;;10.13;4.97;;;;;;;-150.27;100.00;61272.81;5269633;28;20112;-78
2022/07/22 01:54:42;;;;;;;12.77;4.67;;;;;;;-150.27;100.00;61272.81;5270651;28;20042;-78
2022/07/22 01:57:13;;;;;;;13.60;5.13;;;;;;;-150.27;100.00;61272.81;5270370;28;20040;-78
2022/07/22 01:59:45;;;;;;;11.80;4.23;;;;;;;-150.27;100.00;61272.81;5269119;28;20032;-78
2022/07/22 02:02:16;;;;;;;13.40;5.07;;;;;;;-150.27;100.00;61272.81;5269423;28;20021;-77
2022/07/22 02:04:47;;;;;;;9.50;4.50;;;;;;;-150.27;100.00;61272.81;5269049;28;20043;-78
2022/07/22 02:07:18;;;;;;;15.20;5.47;;;;;;;-150.27;100.00;61272.81;5269197;28;20137;-78
2022/07/22 02:09:50;;;;;;;15.80;5.90;;;;;;;-150.27;100.00;61272.81;5268647;28;20036;-78
2022/07/22 02:12:21;;;;;;;16.30;6.50;;;;;;;-150.27;100.00;61272.81;5268725;28;20458;-77
2022/07/22 02:14:52;;;;;;;15.13;6.00;;;;;;;-150.27;100.00;61272.81;5270024;28;20032;-78
2022/07/22 02:17:24;;;;;;;14.60;5.17;;;;;;;-150.27;100.00;61272.81;5268360;28;20032;-78
2022/07/22 02:19:56;;;;;;;15.00;5.13;;;;;;;-150.27;100.00;61272.81;5267224;28;20029;-78
2022/07/22 02:22:27;;;;;;;16.73;5.97;;;;;;;-150.27;100.00;61272.81;5268454;28;20044;-78
2022/07/22 02:24:58;;;;;;;18.43;6.73;;;;;;;-150.27;100.00;61272.81;5269298;28;20110;-78
2022/07/22 02:27:30;;;;;;;13.37;5.80;;;;;;;-150.27;100.00;61272.81;5267806;28;20106;-78
2022/07/22 02:30:01;;;;;;;11.30;5.40;;;;;;;-150.27;100.00;61272.81;5268687;28;20027;-78
2022/07/22 02:32:32;;;;;;;17.87;7.07;;;;;;;-150.27;100.00;61272.81;5269297;28;20075;-78
2022/07/22 02:35:04;;;;;;;12.93;5.90;;;;;;;-150.27;100.00;61272.81;5267845;28;20103;-78
2022/07/22 02:37:37;;;;;;;10.90;5.53;;;;;;;-150.27;100.00;61272.81;5271336;28;20021;-79
2022/07/22 02:40:09;;;;;;;10.17;5.73;;;;;;;-150.27;100.00;61272.81;5269473;28;20028;-78
2022/07/22 02:42:40;;;;;;;17.73;6.53;;;;;;;-150.27;100.00;61272.81;5268748;28;20696;-78
2022/07/22 02:45:11;;;;;;;12.10;5.90;;;;;;;-150.27;100.00;61272.81;5268069;28;20111;-78
2022/07/22 02:47:51;;;;;;;14.30;7.13;;;;;;;-150.27;100.00;61272.81;5269058;28;20128;-78
2022/07/22 02:50:23;;;;;;;16.90;6.87;;;;;;;-150.27;100.00;61272.81;5272526;28;20016;-78
2022/07/22 02:52:54;;;;;;;12.27;6.50;;;;;;;-150.27;100.00;61272.81;5273900;28;20035;-78
2022/07/22 02:55:25;;;;;;;12.63;6.13;;;;;;;-150.27;100.00;61272.81;5272864;28;20028;-78
2022/07/22 02:58:03;;;;;;;10.63;7.17;;;;;;;-150.27;100.00;61272.81;5272683;28;20027;-78
2022/07/22 03:00:37;;;;;;;16.93;6.47;;;;;;;-150.27;100.00;61272.81;5273809;28;20040;-79
2022/07/22 03:03:08;;;;;;;13.30;6.15;;;;;;;-150.27;100.00;61272.81;5273376;28;20017;-79
2022/07/22 03:05:40;;;;;;;11.17;6.27;;;;;;;-150.27;100.00;61272.81;5272528;28;20168;-78
2022/07/22 03:08:11;;;;;;;11.63;5.43;;;;;;;-150.27;100.00;61272.81;5272600;28;20056;-79
2022/07/22 03:10:42;;;;;;;18.57;6.83;;;;;;;-150.27;100.00;61272.81;5270789;28;20119;-79
2022/07/22 03:13:14;;;;;;;12.30;6.37;;;;;;;-150.27;100.00;61272.81;5272032;28;20023;-79
2022/07/22 03:15:45;;;;;;;18.57;6.53;;;;;;;-150.27;100.00;61272.81;5274052;28;20035;-78
2022/07/22 03:18:16;;;;;;;19.87;6.53;;;;;;;-150.27;100.00;61272.81;5270672;28;20039;-78
2022/07/22 03:20:48;;;;;;;13.07;5.77;;;;;;;-150.27;100.00;61272.81;5272742;28;20043;-78
2022/07/22 03:23:19;;;;;;;17.53;8.13;;;;;;;-150.27;100.00;61272.81;5272368;28;20893;-78
2022/07/22 03:25:50;;;;;;;15.73;6.17;;;;;;;-150.27;100.00;61272.81;5272789;28;20537;-78
2022/07/22 03:28:22;;;;;;;12.53;6.43;;;;;;;-150.27;100.00;61272.81;5272051;28;20025;-78
2022/07/22 03:30:53;;;;;;;16.47;6.73;;;;;;;-150.27;100.00;61272.81;5272004;28;20463;-78
2022/07/22 03:33:25;;;;;;;17.33;6.77;;;;;;;-150.27;100.00;61272.81;5272651;28;20694;-78
2022/07/22 03:35:56;;;;;;;14.77;6.43;;;;;;;-150.27;100.00;61272.81;5270684;28;20032;-78
2022/07/22 03:38:27;;;;;;;11.60;6.10;;;;;;;-150.27;100.00;61272.81;5270843;28;20020;-78
2022/07/22 03:40:59;;;;;;;15.20;6.53;;;;;;;-150.27;100.00;61272.81;5270488;28;20371;-79
2022/07/22 03:43:31;;;;;;;13.77;6.67;;;;;;;-150.27;100.00;61272.81;5272858;28;20031;-79
2022/07/22 03:46:02;;;;;;;17.53;6.93;;;;;;;-150.27;100.00;61272.81;5264654;28;20040;-78
2022/07/22 03:48:33;;;;;;;16.00;6.00;;;;;;;-150.27;100.00;61272.81;5256644;28;20064;-78
2022/07/22 03:51:05;;;;;;;11.17;5.67;;;;;;;-150.27;100.00;61272.81;5273072;28;20465;-78
2022/07/22 03:53:37;;;;;;;15.10;5.73;;;;;;;-150.27;100.00;61272.81;5272159;28;20032;-78
2022/07/22 03:56:08;;;;;;;15.87;7.30;;;;;;;-150.27;100.00;61272.81;5263032;28;20487;-77
2022/07/22 03:58:39;;;;;;;17.47;6.20;;;;;;;-150.27;100.00;61272.81;5268630;28;20032;-78
2022/07/22 04:01:10;;;;;;;15.10;6.93;;;;;;;-150.27;100.00;61272.81;5270056;28;20490;-78
2022/07/22 04:03:42;;;;;;;12.47;6.77;;;;;;;-150.27;100.00;61272.81;5272421;28;20036;-78
2022/07/22 04:06:14;;;;;;;16.70;6.13;;;;;;;-150.27;100.00;61272.81;5265265;28;20037;-78
2022/07/22 04:08:46;;;;;;;15.73;6.30;;;;;;;-150.27;100.00;61272.81;5271073;28;20060;-77
2022/07/22 04:11:17;;;;;;;10.63;5.37;;;;;;;-150.27;100.00;61272.81;5266425;28;20391;-78
2022/07/22 04:13:48;;;;;;;18.40;7.00;;;;;;;-150.27;100.00;61272.81;5269889;28;20337;-77
2022/07/22 04:16:20;;;;;;;14.83;6.13;;;;;;;-150.27;100.00;61272.81;5270032;28;20021;-77
2022/07/22 04:18:51;;;;;;;10.97;6.27;;;;;;;-150.27;100.00;61272.81;5271390;28;20029;-77
2022/07/22 04:21:22;;;;;;;11.70;6.17;;;;;;;-150.27;100.00;61272.81;5271579;28;20044;-72
2022/07/22 04:23:54;;;;;;;15.27;5.70;;;;;;;-150.27;100.00;61272.81;5270491;28;20047;-75
2022/07/22 04:26:25;;;;;;;12.47;5.90;;;;;;;-150.27;100.00;61272.81;5271937;28;20078;-77
2022/07/22 04:28:56;;;;;;;13.57;5.70;;;;;;;-150.27;100.00;61272.81;5272834;28;20071;-76
2022/07/22 04:31:28;;;;;;;9.30;5.70;;;;;;;-150.27;100.00;61272.81;5272519;28;20118;-72
2022/07/22 04:33:59;;;;;;;13.00;6.87;;;;;;;-150.27;100.00;61272.81;5270296;28;20047;-75
2022/07/22 04:36:30;;;;;;;13.87;6.30;;;;;;;-150.27;100.00;61272.81;5266792;28;20029;-78
2022/07/22 04:39:02;;;;;;;15.67;6.53;;;;;;;-150.27;100.00;61272.81;5269217;28;20033;-77
2022/07/22 04:41:33;;;;;;;15.80;6.57;;;;;;;-150.27;100.00;61272.81;5267598;28;20035;-78
2022/07/22 04:44:05;;;;;;;18.17;6.70;;;;;;;-150.27;100.00;61272.81;5269633;28;20035;-78
2022/07/22 04:46:36;;;;;;;19.13;7.00;;;;;;;-150.27;100.00;61272.81;5270297;28;20475;-78
2022/07/22 04:49:07;;;;;;;14.23;6.87;;;;;;;-150.27;100.00;61272.81;5270020;28;20024;-78
2022/07/22 04:51:38;;;;;;;17.53;6.90;;;;;;;-150.27;100.00;61272.81;5271508;28;20028;-77
2022/07/22 04:54:10;;;;;;;12.23;6.47;;;;;;;-150.27;100.00;61272.81;5270279;28;20032;-77
2022/07/22 04:56:41;;;;;;;15.30;6.70;;;;;;;-150.27;100.00;61272.81;5269200;28;20035;-77
2022/07/22 04:59:12;;;;;;;18.10;7.77;;;;;;;-150.27;100.00;61272.81;5263549;28;20025;-77
2022/07/22 05:01:43;;;;;;;11.73;6.27;;;;;;;-150.27;100.00;61272.81;5265675;28;20029;-77
2022/07/22 05:04:15;;;;;;;14.37;6.80;;;;;;;-150.27;100.00;61272.81;5268717;28;20671;-77
2022/07/22 05:06:46;;;;;;;20.43;7.87;;;;;;;-150.27;100.00;61272.81;5269687;28;20445;-77
2022/07/22 05:09:17;;;;;;;21.07;8.53;;;;;;;-150.27;100.00;61272.81;5266017;28;20025;-77
2022/07/22 05:11:49;;;;;;;16.73;8.53;;;;;;;-150.27;100.00;61272.81;5264984;28;20054;-77
2022/07/22 05:14:20;;;;;;;14.37;7.03;;;;;;;-150.27;100.00;61272.81;5267537;28;20033;-77
2022/07/22 05:16:51;;;;;;;12.17;7.77;;;;;;;-150.27;100.00;61272.81;5266948;28;20028;-77
2022/07/22 05:19:23;;;;;;;14.07;7.50;;;;;;;-150.27;100.00;61272.81;5269832;28;20040;-78
2022/07/22 05:21:54;;;;;;;19.10;7.93;;;;;;;-150.27;100.00;61272.81;5269544;28;20500;-78
2022/07/22 05:24:25;;;;;;;16.07;8.10;;;;;;;-150.27;100.00;61272.81;5270374;28;20020;-78
2022/07/22 05:26:57;;;;;;;17.77;8.30;;;;;;;-150.27;100.00;61272.81;5274092;28;20037;-79
2022/07/22 05:29:28;;;;;;;18.10;8.57;;;;;;;-150.27;100.00;61272.81;5272626;28;20471;-78
2022/07/22 05:32:00;;;;;;;16.67;8.17;;;;;;;-150.27;100.00;61272.81;5269894;28;20068;-78
2022/07/22 05:34:31;;;;;;;16.03;7.90;;;;;;;-150.27;100.00;61272.81;5270708;28;20063;-77
2022/07/22 05:37:03;;;;;;;12.57;6.63;;;;;;;-150.27;100.00;61272.81;5267666;28;20071;-78
2022/07/22 05:39:34;;;;;;;15.70;7.73;;;;;;;-150.27;100.00;61272.81;5268914;28;20032;-79
2022/07/22 05:42:05;;;;;;;13.17;7.20;;;;;;;-150.27;100.00;61272.81;5266058;28;20054;-79
2022/07/22 05:44:37;;;;;;;13.33;8.10;;;;;;;-150.27;100.00;61272.81;5269399;28;20028;-79
2022/07/22 05:47:08;;;;;;;14.27;7.83;;;;;;;-150.27;100.00;61272.81;5269929;28;20032;-79
2022/07/22 05:49:39;;;;;;;19.93;8.07;;;;;;;-150.27;100.00;61272.81;5268316;28;20036;-80
2022/07/22 05:52:11;;;;;;;15.53;7.87;;;;;;;-150.27;100.00;61272.81;5256177;28;20112;-80
2022/07/22 05:54:42;;;;;;;16.63;7.83;;;;;;;-150.27;100.00;61272.81;5275006;28;20041;-79
2022/07/22 05:57:13;;;;;;;13.33;7.33;;;;;;;-150.27;100.00;61272.81;5261931;28;20021;-80
2022/07/22 05:59:44;;;;;;;14.03;7.00;;;;;;;-150.27;100.00;61272.81;5262759;28;20107;-79
2022/07/22 06:02:16;;;;;;;15.40;7.30;;;;;;;-150.27;100.00;61272.81;5262676;28;20039;-80
2022/07/22 06:04:47;;;;;;;16.07;7.00;;;;;;;-150.27;100.00;61272.81;5262565;28;20028;-79
2022/07/22 06:07:18;;;;;;;20.80;7.27;;;;;;;-150.27;100.00;61272.81;5260735;28;20238;-79
2022/07/22 06:09:50;;;;;;;16.13;7.03;;;;;;;-150.27;100.00;61272.81;5256371;28;20052;-77
2022/07/22 06:12:21;;;;;;;12.70;6.73;;;;;;;-150.27;100.00;61272.81;5252080;28;20048;-77
2022/07/22 06:14:53;;;;;;;12.97;7.17;;;;;;;-150.27;100.00;61272.81;5256946;28;20024;-77
2022/07/22 06:17:24;;;;;;;10.93;6.83;;;;;;;-150.27;100.00;61272.81;5260413;28;20174;-77
2022/07/22 06:19:55;;;;;;;18.77;6.73;;;;;;;-150.27;100.00;61272.81;5253693;28;20051;-84
2022/07/22 06:22:27;;;;;;;16.33;5.93;;;;;;;-150.27;100.00;61272.81;5253295;28;20032;-89
2022/07/22 06:24:58;;;;;;;17.27;6.10;;;;;;;-150.27;100.00;61272.81;5258398;28;20464;-85
2022/07/22 06:27:29;;;;;;;16.37;6.53;;;;;;;-150.27;100.00;61272.81;5256115;28;20033;-78
2022/07/22 06:30:01;;;;;;;17.23;6.93;;;;;;;-150.27;100.00;61272.81;5257514;28;20078;-77
2022/07/22 06:32:32;;;;;;;14.70;6.60;;;;;;;-150.27;100.00;61272.81;5255919;28;20024;-77
2022/07/22 06:35:04;;;;;;;13.60;5.47;;;;;;;-150.27;100.00;61272.81;5269167;28;20031;-77
2022/07/22 06:37:35;;;;;;;9.27;4.43;;;;;;;-150.27;100.00;61272.81;5261775;28;20024;-73
2022/07/22 06:40:07;;;;;;;7.37;4.10;;;;;;;-150.27;100.00;61272.81;5265862;28;20119;-73
2022/07/22 06:42:39;;;;;;;9.40;4.80;;;;;;;-150.27;100.00;61272.81;5256157;28;20118;-73
2022/07/22 06:45:10;;;;;;;14.10;5.57;;;;;;;-150.27;100.00;61272.81;5263790;28;20036;-76
2022/07/22 06:47:42;;;;;;;12.37;4.87;;;;;;;-150.27;100.00;61272.81;5264773;28;20471;-74
2022/07/22 06:50:13;;;;;;;7.33;4.33;;;;;;;-150.27;100.00;61272.81;5267044;28;20479;-75
2022/07/22 06:52:45;;;;;;;12.20;4.40;;;;;;;-150.27;100.00;61272.81;5259197;28;20026;-74
2022/07/22 06:55:16;;;;;;;11.13;4.90;;;;;;;-150.27;100.00;61272.81;5259077;28;20028;-74
2022/07/22 06:57:48;;;;;;;10.07;3.67;;;;;;;-150.27;100.00;61272.81;5267699;28;20028;-74
2022/07/22 07:00:19;;;;;;;10.77;4.97;;;;;;;-150.27;100.00;61272.81;5268045;28;20394;-75
2022/07/22 07:02:50;;;;;;;5.67;3.20;;;;;;;-150.27;100.00;61272.81;5252685;28;20017;-74
2022/07/22 07:05:21;;;;;;;7.60;3.40;;;;;;;-150.27;100.00;61272.81;5264970;28;20536;-75
2022/07/22 07:07:53;;;;;;;14.90;4.07;;;;;;;-150.27;100.00;61272.81;5265970;28;20056;-75
2022/07/22 07:10:24;;;;;;;7.73;3.60;;;;;;;-150.27;100.00;61272.81;5265316;28;20023;-75
2022/07/22 07:12:57;;;;;;;5.97;1.80;;;;;;;-150.27;100.00;61272.81;5253279;28;20028;-75
2022/07/22 07:15:28;;;;;;;9.47;2.60;;;;;;;-150.27;100.00;61272.81;5266434;28;20123;-75
2022/07/22 07:17:59;;;;;;;10.23;2.80;;;;;;;-150.27;100.00;61272.81;5265573;28;20029;-73
2022/07/22 07:20:31;;;;;;;4.80;2.23;;;;;;;-150.27;100.00;61272.81;5266085;28;20052;-75
2022/07/22 07:23:02;;;;;;;4.27;1.80;;;;;;;-150.27;100.00;61272.81;5252086;28;20093;-75
2022/07/22 07:25:33;;;;;;;6.23;2.13;;;;;;;-150.27;100.00;61272.81;5249209;28;20020;-74
2022/07/22 07:28:05;;;;;;;4.63;2.23;;;;;;;-150.27;100.00;61272.81;5246437;28;20033;-74
2022/07/22 07:30:37;;;;;;;3.15;1.23;;;;;;;-150.27;100.00;61272.81;5246331;28;20029;-74
2022/07/22 07:33:08;;;;;;;2.63;1.10;;;;;;;-150.27;100.00;61272.81;5245084;28;20403;-75
2022/07/22 07:35:40;;;;;;;3.08;1.70;;;;;;;-150.27;100.00;61272.81;5252515;28;20043;-75
2022/07/22 07:38:11;;;;;;;7.05;2.00;;;;;;;-150.27;100.00;61272.81;5246213;28;20033;-75
2022/07/22 07:40:42;;;;;;;4.95;1.80;;;;;;;-150.27;100.00;61272.81;5252228;28;20063;-75
2022/07/22 07:43:14;;;;;;;3.65;1.67;;;;;;;-150.27;100.00;61272.81;5248451;28;20041;-75
2022/07/22 07:45:45;;;;;;;4.85;1.45;;;;;;;-150.27;100.00;61272.81;5255230;28;20107;-75
2022/07/22 07:48:16;;;;;;;4.43;1.77;;;;;;;-150.27;100.00;61272.81;5255256;28;20039;-75
2022/07/22 07:50:47;;;;;;;2.90;1.40;;;;;;;-150.27;100.00;61272.81;5250530;28;20027;-75
2022/07/22 07:53:19;;;;;;;3.53;1.17;;;;;;;-150.27;100.00;61272.81;5249266;28;20029;-72
2022/07/22 07:55:50;;;;;;;3.85;1.27;;;;;;;-150.27;100.00;61272.81;5246089;28;20929;-72
2022/07/22 07:58:22;;;;;;;5.53;1.20;;;;;;;-150.27;100.00;61272.81;5248402;28;20195;-73
2022/07/22 08:00:53;;;;;;;2.47;0.98;;;;;;;-150.27;100.00;61272.81;5249685;28;20036;-72
2022/07/22 08:03:24;;;;;;;2.38;1.10;;;;;;;-150.27;100.00;61272.81;5249581;28;20513;-72
2022/07/22 08:05:57;;;;;;;3.80;0.93;;;;;;;-150.27;100.00;61272.81;5245727;28;20917;-72
2022/07/22 08:08:29;;;;;;;4.00;1.63;;;;;;;-150.27;100.00;61272.81;5248423;28;20053;-73
2022/07/22 08:11:00;;;;;;;3.60;1.02;;;;;;;-150.27;100.00;61272.81;5244704;28;20037;-73
2022/07/22 08:13:31;;;;;;;5.25;1.50;;;;;;;-150.27;100.00;61272.81;5253886;28;20036;-73
2022/07/22 08:16:03;;;;;;;4.85;1.80;;;;;;;-150.27;100.00;61272.81;5255524;28;20035;-73
2022/07/22 08:18:34;;;;;;;4.18;1.70;;;;;;;-150.27;100.00;61272.81;5248660;28;20032;-75
2022/07/22 08:21:06;;;;;;;4.95;1.88;;;;;;;-150.27;100.00;61272.81;5251128;28;20674;-75
2022/07/22 08:23:37;;;;;;;4.40;1.45;;;;;;;-150.27;100.00;61272.81;5240617;28;20065;-76
2022/07/22 08:26:08;;;;;;;4.05;1.70;;;;;;;-150.27;100.00;61272.81;5252517;28;20081;-76
2022/07/22 08:28:39;;;;;;;2.92;1.63;;;;;;;-150.27;100.00;61272.81;5245195;28;20037;-75
2022/07/22 08:31:11;;;;;;;6.25;2.17;;;;;;;-150.27;100.00;61272.81;5246114;28;20041;-76
2022/07/22 08:33:42;;;;;;;7.97;1.70;;;;;;;-150.27;100.00;61272.81;5254267;28;20040;-76
2022/07/22 08:36:14;;;;;;;6.53;2.00;;;;;;;-150.27;100.00;61272.81;5258471;28;20036;-76
2022/07/22 08:38:45;;;;;;;5.43;1.48;;;;;;;-150.27;100.00;61272.81;5245960;28;20482;-76
2022/07/22 08:41:17;;;;;;;5.82;1.55;;;;;;;-150.27;100.00;61272.81;5247093;28;20422;-76
2022/07/22 08:43:50;;;;;;;5.25;1.80;;;;;;;-150.27;100.00;61272.81;5245205;28;20052;-76
2022/07/22 08:46:21;;;;;;;5.70;1.63;;;;;;;-150.27;100.00;61272.81;5241967;28;20414;-76
2022/07/22 08:48:54;;;;;;;9.25;1.70;;;;;;;-150.27;100.00;61272.81;5250802;28;20024;-76
2022/07/22 08:51:26;;;;;;;6.93;1.60;;;;;;;-150.27;100.00;61272.81;5252706;28;20048;-76
2022/07/22 08:53:58;;;;;;;4.80;1.58;;;;;;;-150.27;100.00;61272.81;5264201;28;20028;-76
2022/07/22 08:56:29;;;;;;;4.38;1.55;;;;;;;-150.27;100.00;61272.81;5267014;28;20052;-75
2022/07/22 08:59:00;;;;;;;4.50;1.73;;;;;;;-150.27;100.00;61272.81;5269942;28;20032;-76
2022/07/22 09:01:32;;;;;;;6.68;1.35;;;;;;;-150.27;100.00;61272.81;5269679;28;20528;-76
2022/07/22 09:04:03;;;;;;;2.85;1.42;;;;;;;-150.27;100.00;61272.81;5252138;28;20044;-76
2022/07/22 09:06:35;;;;;;;2.97;1.35;;;;;;;-150.27;100.00;61272.81;5271027;28;20050;-76
2022/07/22 09:09:09;;;;;;;4.22;1.75;;;;;;;-150.27;100.00;61272.81;5268943;28;20778;-76
2022/07/22 09:11:40;;;;;;;4.93;1.42;;;;;;;-150.27;100.00;61272.81;5269259;28;20028;-75
2022/07/22 09:14:11;;;;;;;4.18;1.50;;;;;;;-150.27;100.00;61272.81;5261212;28;20025;-76
2022/07/22 09:16:45;;;;;;;3.58;1.38;;;;;;;-150.27;100.00;61272.81;5259238;28;20028;-76
2022/07/22 09:19:30;;;;;;;6.05;1.52;;;;;;;-150.27;100.00;61272.81;5270491;28;20507;-76
2022/07/22 09:22:04;;;;;;;5.63;1.50;;;;;;;-150.27;100.00;61272.81;5264642;28;20028;-76
2022/07/22 09:24:35;;;;;;;6.22;2.83;;;;;;;-150.27;100.00;61272.81;5249616;28;20021;-76
2022/07/22 09:27:07;;;;;;;2.80;1.23;;;;;;;-150.27;100.00;61272.81;5260002;28;20498;-76
2022/07/22 09:29:49;;;;;;;6.15;1.90;;;;;;;-150.27;100.00;61272.81;5269846;28;20112;-75
2022/07/22 09:32:20;;;;;;;5.07;1.70;;;;;;;-150.27;100.00;61272.81;5260205;28;20028;-76
2022/07/22 09:35:01;;;;;;;7.22;2.20;;;;;;;-150.27;100.00;61272.81;5249482;28;20069;-76
2022/07/22 09:37:32;;;;;;;9.80;1.95;;;;;;;-150.27;100.00;61272.81;5263789;28;20025;-76
2022/07/22 09:40:19;;;;;;;2.95;1.25;;;;;;;-150.27;100.00;61272.81;5266838;28;20036;-76
2022/07/22 09:42:53;;;;;;;5.45;1.85;;;;;;;-150.27;100.00;61272.81;5256881;28;20430;-76
2022/07/22 09:45:26;;;;;;;6.05;2.20;;;;;;;-150.27;100.00;61272.81;5253794;28;20699;-75
2022/07/22 09:47:59;;;;;;;8.48;2.40;;;;;;;-150.27;100.00;61272.81;5270733;28;20023;-75
2022/07/22 09:50:32;;;;;;;5.53;2.07;;;;;;;-150.27;100.00;61272.81;5264254;28;20025;-75
2022/07/22 09:53:04;;;;;;;4.70;1.90;;;;;;;-150.27;100.00;61272.81;5250780;28;20029;-75
2022/07/22 09:55:38;;;;;;;5.05;1.80;;;;;;;-150.27;100.00;61272.81;5260147;28;20038;-76
2022/07/22 09:58:11;;;;;;;6.88;2.05;;;;;;;-150.27;100.00;61272.81;5267154;28;20013;-76
2022/07/22 10:00:43;;;;;;;4.45;2.13;;;;;;;-150.27;100.00;61272.81;5272611;28;20020;-75
2022/07/22 10:03:33;;;;;;;3.55;1.77;;;;;;;-150.27;100.00;61272.81;5264115;28;20025;-76
2022/07/22 10:06:05;;;;;;;3.53;1.77;;;;;;;-150.27;100.00;61272.81;5251546;28;20042;-76
2022/07/22 10:08:38;;;;;;;5.30;1.63;;;;;;;-150.27;100.00;61272.81;5269178;28;20399;-76
2022/07/22 10:11:09;;;;;;;3.03;1.85;;;;;;;-150.27;100.00;61272.81;5267564;28;20032;-76
2022/07/22 10:13:41;;;;;;;6.32;1.90;;;;;;;-150.27;100.00;61272.81;5251553;28;20009;-75
2022/07/22 10:16:14;;;;;;;2.92;1.58;;;;;;;-150.27;100.00;61272.81;5257154;28;20020;-75
2022/07/22 10:18:46;;;;;;;3.55;1.75;;;;;;;-150.27;100.00;61272.81;5268410;28;20046;-75
2022/07/22 10:21:18;;;;;;;4.80;2.35;;;;;;;-150.27;100.00;61272.81;5268350;28;20028;-77
2022/07/22 10:24:09;;;;;;;5.90;2.20;;;;;;;-150.27;100.00;61272.81;5250514;28;20035;-76
2022/07/22 10:26:48;;;;;;;5.13;2.35;;;;;;;-150.27;100.00;61272.81;5256255;28;20774;-76
2022/07/22 10:29:26;;;;;;;7.57;2.65;;;;;;;-150.27;100.00;61272.81;5268864;28;21070;-77
2022/07/22 10:32:16;;;;;;;5.88;2.28;;;;;;;-150.27;100.00;61272.81;5263888;28;20027;-77
2022/07/22 10:35:21;;;;;;;9.48;2.50;;;;;;;-150.27;100.00;61272.81;5264296;28;20044;-83
2022/07/22 10:37:55;;;;;;;5.18;2.45;;;;;;;-150.27;100.00;61272.81;5265676;28;21307;-77
2022/07/22 10:40:30;;;;;;;5.43;2.00;;;;;;;-150.27;100.00;61272.81;5269504;28;20132;-77
2022/07/22 10:43:03;;;;;;;4.03;2.47;;;;;;;-150.27;100.00;61272.81;5263025;28;20028;-76
2022/07/22 10:45:51;;;;;;;6.50;3.13;;;;;;;-150.27;100.00;61272.81;5265903;28;20570;-75
2022/07/22 10:48:24;;;;;;;4.63;2.40;;;;;;;-150.27;100.00;61272.81;5267890;28;20031;-80
2022/07/22 10:51:14;;;;;;;;;;;;;;;-150.27;100.00;61272.81;5269307;28;20034;-76
2022/07/22 10:53:47;;;;;;;4.53;2.25;;;;;;;-150.27;100.00;61272.81;5253772;28;19948;-76
2022/07/22 10:56:23;;;;;;;4.72;2.70;;;;;;;-150.27;100.00;61272.81;5259884;28;20058;-75
2022/07/22 10:58:58;;;;;;;7.22;2.90;;;;;;;-150.27;100.00;61272.81;5262882;28;20070;-74
2022/07/22 11:01:31;;;;;;;7.97;2.67;;;;;;;-150.27;100.00;61272.81;5265028;28;20029;-75
2022/07/22 11:04:23;;;;;;;4.95;2.67;;;;;;;-150.27;100.00;61272.81;5252090;28;20120;-75
2022/07/22 11:06:56;;;;;;;6.78;2.58;;;;;;;-150.27;100.00;61272.81;5265683;28;20050;-76
2022/07/22 11:09:33;;;;;;;4.65;2.55;;;;;;;-150.27;100.00;61272.81;5260847;28;20039;-76
2022/07/22 11:12:12;;;;;;;7.07;2.30;;;;;;;-150.27;100.00;61272.81;5278941;28;20704;-76
2022/07/22 11:14:43;;;;;;;5.07;2.80;;;;;;;-150.27;100.00;61272.81;5264115;28;20037;-76
2022/07/22 11:17:14;;;;;;;6.28;2.85;;;;;;;-150.27;100.00;61272.81;5264205;28;20025;-76
2022/07/22 11:19:50;;;;;;;8.82;2.75;;;;;;;-150.27;100.00;61272.81;5264525;28;20035;-76
2022/07/22 11:22:22;;;;;;;5.18;2.72;;;;;;;-150.27;100.00;61272.81;5263190;28;20025;-77
2022/07/22 11:24:53;;;;;;;4.90;3.20;;;;;;;-150.27;100.00;61272.81;5265402;28;20450;-75
2022/07/22 11:27:25;;;;;;;7.93;3.20;;;;;;;-150.27;100.00;61272.81;5268657;28;20124;-76